createdAt,value
2023-01-19T00:02:08.722Z,1.33
2023-01-19T00:05:12.064Z,0.40
2023-01-19T00:08:16.763Z,1.77
2023-01-19T00:11:23.059Z,1.70
2023-01-19T00:14:27.996Z,1.13
2023-01-19T00:17:31.367Z,1.58
2023-01-19T00:20:40.723Z,1.58
2023-01-19T00:23:47.335Z,1.03
2023-01-19T00:26:50.964Z,1.65
2023-01-19T00:29:55.508Z,1.48
2023-01-19T00:32:59.555Z,1.45
2023-01-19T00:36:03.633Z,1.08
2023-01-19T00:39:07.425Z,2.77
2023-01-19T00:42:30.947Z,2.50
2023-01-19T00:45:36.166Z,1.60
2023-01-19T00:48:39.374Z,1.05
2023-01-19T00:51:43.043Z,1.77
2023-01-19T00:54:46.229Z,3.20
2023-01-19T00:57:50.207Z,1.80
2023-01-19T01:00:57.462Z,1.35
2023-01-19T01:04:03.477Z,1.05
2023-01-19T01:07:06.788Z,1.15
2023-01-19T01:10:13.325Z,1.63
2023-01-19T01:13:20.129Z,1.17
2023-01-19T01:16:30.000Z,1.13
2023-01-19T01:19:33.236Z,1.30
2023-01-19T01:22:39.073Z,3.42
2023-01-19T01:25:43.405Z,1.67
2023-01-19T01:28:46.990Z,1.58
2023-01-19T01:31:51.576Z,1.02
2023-01-19T01:34:55.230Z,1.85
2023-01-19T01:37:59.378Z,1.00
2023-01-19T01:41:03.016Z,2.43
2023-01-19T01:44:50.941Z,2.55
2023-01-19T01:48:02.083Z,2.55
2023-01-19T01:51:27.147Z,1.10
2023-01-19T01:54:34.593Z,0.98
2023-01-19T01:57:42.949Z,1.57
2023-01-19T02:01:04.604Z,1.40
2023-01-19T02:04:09.474Z,2.08
2023-01-19T02:07:39.088Z,1.17
2023-01-19T02:11:01.640Z,2.92
2023-01-19T02:14:06.428Z,1.23
2023-01-19T02:17:09.642Z,1.55
2023-01-19T02:20:15.795Z,2.17
2023-01-19T02:23:34.552Z,2.10
2023-01-19T02:26:45.914Z,1.58
2023-01-19T02:29:52.159Z,1.57
2023-01-19T02:32:55.617Z,1.58
2023-01-19T02:35:59.367Z,1.23
2023-01-19T02:39:09.124Z,1.98
2023-01-19T02:42:18.424Z,1.52
2023-01-19T02:45:24.711Z,1.63
2023-01-19T02:48:27.970Z,0.82
2023-01-19T02:51:32.319Z,0.90
2023-01-19T02:54:54.096Z,2.28
2023-01-19T02:58:08.904Z,3.03
2023-01-19T03:01:27.786Z,2.07
2023-01-19T03:04:54.683Z,3.50
2023-01-19T03:08:12.093Z,1.73
2023-01-19T03:11:17.623Z,2.60
2023-01-19T03:14:28.480Z,1.95
2023-01-19T03:17:33.914Z,0.97
2023-01-19T03:20:40.907Z,2.33
2023-01-19T03:23:48.175Z,1.55
2023-01-19T03:27:01.816Z,1.85
2023-01-19T03:30:13.303Z,1.90
2023-01-19T03:33:26.620Z,1.47
2023-01-19T03:36:37.398Z,2.85
2023-01-19T03:39:41.183Z,2.25
2023-01-19T03:42:47.716Z,1.55
2023-01-19T03:45:53.703Z,2.38
2023-01-19T03:48:59.677Z,1.77
2023-01-19T03:52:03.253Z,1.52
2023-01-19T03:55:09.905Z,2.47
2023-01-19T03:58:15.235Z,1.75
2023-01-19T04:01:22.863Z,2.25
2023-01-19T04:04:29.224Z,2.63
2023-01-19T04:07:32.722Z,1.40
2023-01-19T04:10:36.040Z,1.85
2023-01-19T04:13:41.100Z,1.13
2023-01-19T04:16:44.597Z,1.20
2023-01-19T04:19:48.308Z,1.77
2023-01-19T04:22:51.818Z,1.52
2023-01-19T04:25:59.618Z,1.23
2023-01-19T04:29:04.516Z,2.10
2023-01-19T04:32:08.109Z,1.67
2023-01-19T04:35:11.474Z,1.73
2023-01-19T04:38:15.276Z,1.77
2023-01-19T04:41:18.644Z,2.05
2023-01-19T04:44:23.559Z,1.40
2023-01-19T04:47:27.074Z,1.60
2023-01-19T04:50:30.592Z,1.23
2023-01-19T04:53:34.423Z,1.52
2023-01-19T04:56:38.440Z,1.25
2023-01-19T04:59:44.366Z,1.45
2023-01-19T05:02:48.076Z,0.80
2023-01-19T05:05:51.923Z,1.43
2023-01-19T05:08:55.404Z,0.85
2023-01-19T05:11:58.556Z,1.73
2023-01-19T05:15:03.617Z,2.65
2023-01-19T05:18:07.181Z,1.65
2023-01-19T05:21:10.690Z,1.23
2023-01-19T05:24:14.193Z,1.17
2023-01-19T05:27:17.999Z,1.38
2023-01-19T05:30:22.628Z,1.65
2023-01-19T05:33:27.683Z,1.77
2023-01-19T05:36:31.980Z,1.70
2023-01-19T05:39:35.682Z,1.70
2023-01-19T05:42:39.575Z,0.77
2023-01-19T05:45:45.568Z,0.93
2023-01-19T05:48:49.204Z,2.13
2023-01-19T05:51:52.917Z,1.87
2023-01-19T05:54:56.417Z,1.98
2023-01-19T05:58:00.429Z,0.85
2023-01-19T06:01:06.872Z,1.23
2023-01-19T06:04:10.370Z,1.52
2023-01-19T06:07:13.852Z,0.93
2023-01-19T06:10:18.079Z,0.75
2023-01-19T06:13:21.351Z,1.65
2023-01-19T06:16:26.497Z,1.95
2023-01-19T06:19:30.200Z,2.40
2023-01-19T06:22:34.457Z,0.90
2023-01-19T06:25:37.828Z,0.80
2023-01-19T06:28:41.706Z,1.95
2023-01-19T06:31:46.658Z,1.05
2023-01-19T06:34:52.667Z,1.45
2023-01-19T06:37:57.713Z,1.37
2023-01-19T06:41:03.084Z,0.93
2023-01-19T06:44:06.934Z,1.00
2023-01-19T06:47:14.956Z,1.63
2023-01-19T06:50:19.770Z,1.70
2023-01-19T06:53:23.544Z,1.07
2023-01-19T06:56:27.168Z,0.90
2023-01-19T06:59:30.850Z,0.70
2023-01-19T07:02:36.237Z,1.33
2023-01-19T07:05:39.745Z,1.52
2023-01-19T07:08:43.093Z,1.00
2023-01-19T07:11:46.780Z,1.92
2023-01-19T07:14:50.478Z,1.00
2023-01-19T07:17:59.248Z,0.88
2023-01-19T07:21:02.695Z,2.00
2023-01-19T07:24:07.317Z,1.07
2023-01-19T07:27:11.587Z,2.05
2023-01-19T07:30:16.935Z,1.77
2023-01-19T07:33:22.061Z,2.15
2023-01-19T07:36:26.048Z,1.25
2023-01-19T07:39:30.856Z,1.03
2023-01-19T07:42:34.619Z,1.05
2023-01-19T07:45:37.958Z,1.75
2023-01-19T07:48:44.398Z,0.63
2023-01-19T07:51:47.707Z,1.30
2023-01-19T07:54:51.695Z,1.17
2023-01-19T07:57:54.952Z,0.40
2023-01-19T08:00:58.503Z,1.05
2023-01-19T08:04:03.096Z,1.50
2023-01-19T08:07:06.710Z,0.47
2023-01-19T08:10:12.243Z,1.77
2023-01-19T08:13:15.893Z,1.17
2023-01-19T08:16:19.143Z,1.02
2023-01-19T08:19:24.387Z,2.22
2023-01-19T08:22:27.769Z,0.80
2023-01-19T08:25:35.890Z,0.80
2023-01-19T08:28:39.065Z,0.80
2023-01-19T08:31:43.981Z,1.17
2023-01-19T08:34:48.612Z,0.93
2023-01-19T08:37:52.106Z,0.30
2023-01-19T08:40:55.241Z,1.17
2023-01-19T08:43:58.910Z,1.55
2023-01-19T08:47:02.462Z,0.98
2023-01-19T08:50:09.195Z,1.15
2023-01-19T08:53:12.429Z,1.50
2023-01-19T08:56:16.079Z,1.00
2023-01-19T08:59:19.216Z,0.95
2023-01-19T09:02:22.872Z,3.20
2023-01-19T09:05:27.763Z,0.50
2023-01-19T09:08:31.318Z,0.85
2023-01-19T09:11:35.023Z,0.97
2023-01-19T09:14:39.084Z,1.20
2023-01-19T09:17:42.700Z,0.60
2023-01-19T09:20:50.139Z,0.77
2023-01-19T09:23:54.775Z,1.33
2023-01-19T09:26:58.570Z,0.70
2023-01-19T09:30:01.839Z,0.80
2023-01-19T09:33:07.531Z,1.23
2023-01-19T09:36:12.075Z,1.10
2023-01-19T09:39:15.931Z,0.73
2023-01-19T09:42:32.158Z,2.33
2023-01-19T09:45:43.116Z,1.52
2023-01-19T09:48:52.273Z,1.00
2023-01-19T09:51:57.499Z,1.45
2023-01-19T09:55:00.649Z,1.95
2023-01-19T09:58:13.493Z,1.97
2023-01-19T10:01:37.315Z,1.40
2023-01-19T10:04:42.864Z,1.40
2023-01-19T10:08:11.949Z,1.10
2023-01-19T10:11:42.116Z,0.70
2023-01-19T10:15:04.209Z,1.60
2023-01-19T10:18:18.161Z,1.00
2023-01-19T10:21:26.141Z,0.60
2023-01-19T10:24:40.747Z,1.50
2023-01-19T10:27:46.338Z,0.82
2023-01-19T10:30:50.771Z,1.30
2023-01-19T10:33:55.211Z,1.15
2023-01-19T10:37:07.575Z,1.38
2023-01-19T10:40:33.290Z,2.20
2023-01-19T10:43:41.781Z,1.23
2023-01-19T10:46:48.066Z,1.03
2023-01-19T10:49:52.179Z,0.60
2023-01-19T10:52:58.260Z,1.23
2023-01-19T10:56:25.432Z,0.73
2023-01-19T10:59:35.554Z,2.92
2023-01-19T11:02:51.156Z,1.57
2023-01-19T11:05:55.170Z,1.00
2023-01-19T11:09:17.862Z,1.35
2023-01-19T11:12:24.831Z,0.52
2023-01-19T11:15:43.907Z,1.65
2023-01-19T11:18:47.661Z,1.00
2023-01-19T11:22:22.106Z,1.40
2023-01-19T11:25:32.639Z,0.88
2023-01-19T11:28:45.087Z,1.08
2023-01-19T11:31:48.873Z,1.70
2023-01-19T11:34:54.042Z,1.27
2023-01-19T11:38:14.730Z,0.60
2023-01-19T11:41:23.377Z,1.45
2023-01-19T11:44:33.794Z,1.95
2023-01-19T11:47:44.163Z,1.80
2023-01-19T11:50:50.389Z,1.87
2023-01-19T11:53:54.392Z,1.90
2023-01-19T11:57:01.911Z,1.40
2023-01-19T12:00:29.738Z,0.93
2023-01-19T12:03:44.824Z,1.98
2023-01-19T12:06:59.120Z,1.57
2023-01-19T12:10:21.723Z,0.90
2023-01-19T12:13:28.790Z,0.70
2023-01-19T12:16:47.708Z,1.27
2023-01-19T12:20:05.032Z,2.40
2023-01-19T12:23:27.676Z,1.00
2023-01-19T12:26:37.678Z,1.40
2023-01-19T12:29:42.967Z,1.83
2023-01-19T12:32:48.827Z,0.98
2023-01-19T12:35:57.990Z,2.63
2023-01-19T12:39:05.791Z,1.27
2023-01-19T12:42:16.877Z,0.75
2023-01-19T12:45:25.719Z,1.88
2023-01-19T12:48:33.587Z,1.05
2023-01-19T12:51:37.472Z,1.90
2023-01-19T12:54:51.036Z,0.93
2023-01-19T12:58:04.177Z,0.88
2023-01-19T13:01:21.653Z,0.55
2023-01-19T13:04:34.915Z,0.22
2023-01-19T13:08:18.985Z,0.65
2023-01-19T13:11:26.032Z,1.00
2023-01-19T13:14:39.266Z,0.45
2023-01-19T13:17:52.172Z,0.65
2023-01-19T13:21:02.488Z,0.68
2023-01-19T13:24:09.485Z,1.52
2023-01-19T13:27:14.522Z,0.60
2023-01-19T13:30:23.312Z,1.42
2023-01-19T13:33:32.677Z,0.20
2023-01-19T13:36:44.979Z,1.35
2023-01-19T13:39:53.045Z,1.35
2023-01-19T13:42:57.700Z,0.70
2023-01-19T13:46:03.512Z,0.80
2023-01-19T13:49:21.357Z,1.15
2023-01-19T13:52:28.577Z,0.77
2023-01-19T13:55:33.018Z,0.93
2023-01-19T13:58:36.525Z,1.10
2023-01-19T14:01:42.872Z,1.30
2023-01-19T14:04:46.372Z,0.30
2023-01-19T14:08:06.107Z,1.05
2023-01-19T14:11:15.193Z,0.95
2023-01-19T14:14:27.921Z,0.90
2023-01-19T14:17:32.589Z,0.98
2023-01-19T14:20:37.012Z,2.05
2023-01-19T14:23:47.137Z,0.80
2023-01-19T14:26:53.970Z,0.60
2023-01-19T14:30:21.939Z,1.43
2023-01-19T14:33:37.359Z,2.22
2023-01-19T14:36:42.001Z,1.98
2023-01-19T14:39:50.192Z,0.25
2023-01-19T14:42:57.611Z,0.55
2023-01-19T14:46:01.101Z,0.53
2023-01-19T14:49:07.568Z,1.58
2023-01-19T14:52:25.340Z,1.05
2023-01-19T14:55:46.221Z,0.22
2023-01-19T14:58:49.880Z,1.05
2023-01-19T15:01:53.388Z,0.57
2023-01-19T15:04:57.891Z,0.75
2023-01-19T15:08:04.121Z,1.52
2023-01-19T15:11:14.030Z,0.55
2023-01-19T15:14:20.036Z,0.75
2023-01-19T15:17:26.279Z,0.37
2023-01-19T15:20:29.817Z,0.63
2023-01-19T15:23:34.336Z,1.25
2023-01-19T15:26:41.414Z,1.48
2023-01-19T15:29:46.068Z,0.73
2023-01-19T15:32:49.887Z,0.40
2023-01-19T15:35:53.774Z,0.65
2023-01-19T15:38:57.540Z,0.57
2023-01-19T15:42:02.735Z,0.35
2023-01-19T15:45:35.255Z,0.75
2023-01-19T15:48:39.193Z,1.07
2023-01-19T15:51:43.177Z,0.63
2023-01-19T15:54:47.228Z,2.25
2023-01-19T15:57:51.904Z,0.50
2023-01-19T16:00:57.560Z,0.68
2023-01-19T16:04:02.909Z,0.83
2023-01-19T16:07:06.491Z,0.75
2023-01-19T16:10:12.705Z,0.70
2023-01-19T16:13:17.705Z,1.30
2023-01-19T16:16:24.457Z,1.02
2023-01-19T16:19:28.376Z,1.60
2023-01-19T16:22:31.689Z,1.58
2023-01-19T16:25:35.804Z,0.50
2023-01-19T16:28:40.699Z,0.60
2023-01-19T16:31:45.808Z,0.82
2023-01-19T16:34:50.568Z,1.30
2023-01-19T16:37:54.002Z,0.60
2023-01-19T16:40:57.290Z,1.63
2023-01-19T16:44:03.081Z,1.27
2023-01-19T16:47:06.602Z,0.70
2023-01-19T16:50:12.878Z,1.30
2023-01-19T16:53:16.491Z,1.35
2023-01-19T16:56:20.301Z,0.35
2023-01-19T16:59:27.101Z,0.40
2023-01-19T17:02:31.234Z,2.28
2023-01-19T17:05:34.669Z,1.20
2023-01-19T17:08:39.157Z,2.30
2023-01-19T17:11:42.698Z,0.80
2023-01-19T17:14:48.437Z,0.98
2023-01-19T17:17:52.084Z,1.13
2023-01-19T17:20:56.137Z,1.20
2023-01-19T17:24:00.739Z,1.48
2023-01-19T17:27:04.378Z,0.55
2023-01-19T17:30:11.504Z,0.93
2023-01-19T17:33:15.451Z,1.17
2023-01-19T17:36:22.267Z,1.77
2023-01-19T17:39:25.849Z,1.95
2023-01-19T17:42:32.064Z,1.75
2023-01-19T17:45:38.467Z,0.45
2023-01-19T17:48:46.264Z,0.95
2023-01-19T17:51:54.333Z,5.13
2023-01-19T17:54:58.043Z,1.92
2023-01-19T17:58:02.633Z,1.85
2023-01-19T18:01:11.773Z,2.35
2023-01-19T18:04:15.504Z,3.97
2023-01-19T18:07:19.121Z,1.27
2023-01-19T18:10:26.082Z,2.97
2023-01-19T18:13:30.554Z,4.00
2023-01-19T18:16:36.986Z,2.00
2023-01-19T18:19:40.479Z,2.95
2023-01-19T18:22:44.004Z,2.73
2023-01-19T18:25:47.289Z,9.63
2023-01-19T18:28:51.593Z,9.32
2023-01-19T18:31:58.758Z,5.63
2023-01-19T18:35:02.532Z,7.38
2023-01-19T18:38:05.808Z,3.47
2023-01-19T18:41:13.160Z,3.97
2023-01-19T18:44:16.963Z,4.95
2023-01-19T18:47:21.815Z,9.55
2023-01-19T18:50:25.156Z,6.85
2023-01-19T18:53:28.576Z,4.57
2023-01-19T18:56:31.747Z,4.60
2023-01-19T18:59:35.711Z,8.90
2023-01-19T19:02:40.511Z,7.30
2023-01-19T19:05:44.712Z,5.43
2023-01-19T19:08:49.999Z,3.53
2023-01-19T19:11:53.844Z,3.10
2023-01-19T19:14:57.126Z,3.95
2023-01-19T19:18:01.949Z,3.08
2023-01-19T19:21:06.594Z,4.30
2023-01-19T19:24:11.563Z,2.27
2023-01-19T19:27:14.988Z,3.08
2023-01-19T19:30:19.868Z,3.08
2023-01-19T19:33:24.441Z,2.10
2023-01-19T19:36:29.495Z,1.75
2023-01-19T19:39:32.677Z,1.73
2023-01-19T19:42:36.670Z,2.55
2023-01-19T19:45:40.017Z,1.45
2023-01-19T19:48:47.972Z,0.85
2023-01-19T19:51:51.214Z,1.67
2023-01-19T19:54:54.914Z,1.47
2023-01-19T19:57:58.105Z,1.98
2023-01-19T20:01:03.920Z,1.90
2023-01-19T20:04:14.238Z,1.15
2023-01-19T20:07:18.126Z,0.90
2023-01-19T20:10:21.644Z,1.03
2023-01-19T20:13:28.076Z,0.88
2023-01-19T20:16:31.501Z,0.70
2023-01-19T20:19:36.514Z,1.27
2023-01-19T20:22:39.753Z,1.67
2023-01-19T20:25:43.416Z,0.80
2023-01-19T20:28:46.968Z,0.68
2023-01-19T20:31:54.153Z,1.17
2023-01-19T20:34:58.819Z,0.75
2023-01-19T20:38:02.280Z,0.63
2023-01-19T20:41:06.728Z,1.27
2023-01-19T20:44:11.491Z,0.43
2023-01-19T20:47:15.082Z,1.92
2023-01-19T20:50:20.431Z,1.27
2023-01-19T20:53:23.959Z,1.23
2023-01-19T20:56:27.859Z,0.97
2023-01-19T20:59:34.084Z,1.85
2023-01-19T21:02:37.821Z,0.75
2023-01-19T21:05:42.619Z,0.43
2023-01-19T21:08:47.193Z,1.48
2023-01-19T21:11:52.526Z,2.13
2023-01-19T21:14:56.980Z,0.68
2023-01-19T21:18:01.718Z,0.55
2023-01-19T21:21:10.698Z,1.17
2023-01-19T21:24:18.540Z,0.82
2023-01-19T21:27:22.126Z,1.03
2023-01-19T21:30:25.535Z,0.57
2023-01-19T21:33:28.986Z,0.30
2023-01-19T21:36:34.008Z,1.15
2023-01-19T21:39:37.681Z,1.33
2023-01-19T21:42:41.701Z,1.00
2023-01-19T21:45:45.437Z,0.55
2023-01-19T21:48:49.352Z,0.52
2023-01-19T21:51:55.253Z,0.60
2023-01-19T21:54:58.618Z,0.98
2023-01-19T21:58:02.309Z,0.20
2023-01-19T22:01:10.799Z,0.45
2023-01-19T22:04:14.409Z,1.10
2023-01-19T22:07:19.349Z,0.38
2023-01-19T22:10:22.895Z,0.60
2023-01-19T22:13:26.168Z,1.10
2023-01-19T22:16:30.385Z,0.10
2023-01-19T22:19:33.862Z,0.77
2023-01-19T22:22:38.685Z,0.90
2023-01-19T22:26:00.211Z,1.20
2023-01-19T22:29:05.704Z,0.33
2023-01-19T22:32:09.438Z,0.90
2023-01-19T22:35:13.097Z,0.82
2023-01-19T22:38:21.173Z,0.93
2023-01-19T22:41:27.393Z,0.52
2023-01-19T22:44:30.599Z,0.40
2023-01-19T22:47:34.691Z,0.85
2023-01-19T22:50:38.007Z,0.60
2023-01-19T22:53:44.472Z,0.50
2023-01-19T22:56:47.766Z,0.47
2023-01-19T22:59:51.314Z,0.80
2023-01-19T23:02:54.586Z,1.00
2023-01-19T23:05:58.078Z,0.50
2023-01-19T23:09:06.723Z,0.63
2023-01-19T23:12:10.227Z,0.35
2023-01-19T23:15:13.745Z,0.70
2023-01-19T23:18:17.482Z,0.60
2023-01-19T23:21:24.435Z,0.68
2023-01-19T23:24:29.249Z,0.50
2023-01-19T23:27:32.641Z,1.23
2023-01-19T23:30:36.157Z,0.40
2023-01-19T23:33:39.492Z,1.15
2023-01-19T23:36:44.544Z,0.57
2023-01-19T23:39:49.206Z,0.43
2023-01-19T23:42:52.757Z,0.52
2023-01-19T23:45:56.136Z,1.03
2023-01-19T23:48:59.595Z,0.95
2023-01-19T23:52:02.744Z,0.73
2023-01-19T23:55:09.398Z,0.77
2023-01-19T23:58:12.608Z,0.60
